CheckWX is a tool to help pilots better visualize weather data.  It is not intended as a substitute for an official pre-flight weather briefing.

05:58:30 UTC

KCGI TAF
Cape Girardeau Regional Airport
Cape Girardeau, Missouri, USA
KCGI 280525Z 2806/2906 29005KT P6SM VCSH SCT030 OVC050 FM281100 29005KT P6SM SCT100 FM281800 27011G19KT P6SM VCSH BKN045 FM290000 33006KT P6SM BKN080

Feb-28@
06:00 UTC

Feb-28 @ 06:00 UTC

Feb-28@
11:00 UTC

Feb-28 @ 11:00 UTC

KCGI 280525Z 2806/2906 29005KT P6SM VCSH SCT030 OVC050
Wind
  • 290° at 5 KTS
Cloud Levels
  • Scattered at 3,000' AGL
  • Overcast at 5,000' AGL

Feb-28@
11:00 UTC

Feb-28 @ 11:00 UTC

Feb-28@
18:00 UTC

Feb-28 @ 18:00 UTC

FM281100 29005KT P6SM SCT100

From

From Standard forecast or significant change

Wind
  • 290° at 5 KTS
Cloud Levels
  • Scattered at 10,000' AGL

Feb-28@
18:00 UTC

Feb-28 @ 18:00 UTC

Feb-29@
00:00 UTC

Feb-29 @ 00:00 UTC

FM281800 27011G19KT P6SM VCSH BKN045

From

From Standard forecast or significant change

Wind
  • 270° at 11 KTS
  • {Gusting to 19 KTS
Cloud Levels
  • Broken at 4,500' AGL

Feb-29@
00:00 UTC

Feb-29 @ 00:00 UTC

Feb-29@
06:00 UTC

Feb-29 @ 06:00 UTC

FM290000 33006KT P6SM BKN080

From

From Standard forecast or significant change

Wind
  • 330° at 6 KTS
Cloud Levels
  • Broken at 8,000' AGL